createdAt,value
2022-08-04T00:04:00.712Z,7.72
2022-08-04T00:06:51.536Z,6.22
2022-08-04T00:09:47.537Z,9.95
2022-08-04T00:12:17.888Z,8.68
2022-08-04T00:14:57.245Z,6.90
2022-08-04T00:17:47.719Z,7.97
2022-08-04T00:20:28.199Z,5.13
2022-08-04T00:22:57.999Z,10.85
2022-08-04T00:25:26.493Z,11.85
2022-08-04T00:27:55.499Z,11.88
2022-08-04T00:30:23.366Z,13.57
2022-08-04T00:32:52.673Z,10.95
2022-08-04T00:35:20.544Z,10.48
2022-08-04T00:37:48.524Z,11.35
2022-08-04T00:40:37.758Z,9.13
2022-08-04T00:43:35.729Z,15.15
2022-08-04T00:46:18.246Z,9.23
2022-08-04T00:49:07.152Z,12.90
2022-08-04T00:52:30.932Z,11.65
2022-08-04T00:55:12.838Z,7.88
2022-08-04T00:58:26.083Z,12.25
2022-08-04T01:01:12.022Z,6.47
2022-08-04T01:03:51.943Z,6.90
2022-08-04T01:06:56.096Z,9.80
2022-08-04T01:09:48.493Z,6.28
2022-08-04T01:12:41.350Z,8.77
2022-08-04T01:15:59.697Z,7.57
2022-08-04T01:18:34.899Z,4.95
2022-08-04T01:21:29.597Z,6.28
2022-08-04T01:24:30.224Z,5.75
2022-08-04T01:27:12.091Z,8.60
2022-08-04T01:29:50.744Z,12.55
2022-08-04T01:32:32.026Z,11.07
2022-08-04T01:35:48.017Z,5.75
2022-08-04T01:38:21.363Z,9.07
2022-08-04T01:40:54.876Z,6.75
2022-08-04T01:43:24.570Z,7.05
2022-08-04T01:45:59.010Z,9.10
2022-08-04T01:48:28.303Z,12.85
2022-08-04T01:51:03.426Z,7.03
2022-08-04T01:53:34.106Z,7.80
2022-08-04T01:56:03.091Z,8.65
2022-08-04T01:58:32.570Z,8.80
2022-08-04T02:01:08.193Z,17.63
2022-08-04T02:04:22.029Z,7.07
2022-08-04T02:06:45.325Z,11.38
2022-08-04T02:09:17.869Z,5.20
2022-08-04T02:12:02.074Z,9.35
2022-08-04T02:14:41.075Z,9.95
2022-08-04T02:17:26.555Z,6.82
2022-08-04T02:20:09.070Z,6.10
2022-08-04T02:22:46.995Z,10.48
2022-08-04T02:25:20.506Z,6.65
2022-08-04T02:28:00.349Z,12.68
2022-08-04T02:33:04.686Z,9.70
2022-08-04T02:35:38.912Z,10.68
2022-08-04T02:38:27.902Z,10.50
2022-08-04T02:41:01.839Z,15.32
2022-08-04T02:43:50.813Z,11.98
2022-08-04T02:46:21.770Z,10.98
2022-08-04T02:48:53.324Z,8.95
2022-08-04T02:51:30.760Z,7.75
2022-08-04T02:54:02.270Z,14.57
2022-08-04T02:56:32.855Z,14.07
2022-08-04T02:59:12.110Z,14.93
2022-08-04T03:01:42.581Z,17.30
2022-08-04T03:05:04.204Z,18.90
2022-08-04T03:08:00.751Z,14.00
2022-08-04T03:11:08.013Z,12.70
2022-08-04T03:13:47.489Z,14.10
2022-08-04T03:17:01.800Z,14.50
2022-08-04T03:20:01.585Z,15.60
2022-08-04T03:23:15.307Z,16.30
2022-08-04T03:26:01.078Z,21.77
2022-08-04T03:29:07.059Z,11.55
2022-08-04T03:31:34.428Z,15.90
2022-08-04T03:34:05.735Z,11.32
2022-08-04T03:36:55.164Z,12.25
2022-08-04T03:40:08.939Z,16.17
2022-08-04T03:43:57.154Z,10.20
2022-08-04T03:46:45.476Z,6.90
2022-08-04T03:49:58.886Z,17.95
2022-08-04T03:53:10.881Z,12.48
2022-08-04T03:56:10.895Z,15.52
2022-08-04T03:59:05.831Z,9.02
2022-08-04T04:02:02.510Z,7.93
2022-08-04T04:04:52.260Z,10.23
2022-08-04T04:08:18.929Z,12.73
2022-08-04T04:11:00.181Z,8.82
2022-08-04T04:13:57.619Z,8.02
2022-08-04T04:16:59.176Z,9.77
2022-08-04T04:19:47.254Z,7.47
2022-08-04T04:22:48.475Z,8.07
2022-08-04T04:25:47.388Z,9.75
2022-08-04T04:28:45.692Z,11.68
2022-08-04T04:31:30.122Z,9.82
2022-08-04T04:34:29.798Z,13.85
2022-08-04T04:37:35.009Z,6.13
2022-08-04T04:40:09.308Z,7.70
2022-08-04T04:43:05.293Z,9.95
2022-08-04T04:46:10.288Z,11.25
2022-08-04T04:49:15.744Z,12.35
2022-08-04T04:51:54.081Z,11.38
2022-08-04T04:54:36.858Z,10.20
2022-08-04T04:57:53.951Z,12.80
2022-08-04T05:00:16.164Z,17.88
2022-08-04T05:03:00.811Z,17.42
2022-08-04T05:05:29.740Z,19.35
2022-08-04T05:08:44.686Z,19.35
2022-08-04T05:11:25.031Z,12.65
2022-08-04T05:14:37.037Z,10.75
2022-08-04T05:17:17.031Z,14.85
2022-08-04T05:20:09.084Z,15.50
2022-08-04T05:22:55.882Z,17.40
2022-08-04T05:25:28.866Z,15.13
2022-08-04T05:28:08.520Z,13.43
2022-08-04T05:30:52.135Z,12.52
2022-08-04T05:33:39.266Z,16.77
2022-08-04T05:36:20.384Z,11.57
2022-08-04T05:39:00.102Z,12.57
2022-08-04T05:41:32.337Z,16.90
2022-08-04T05:44:18.746Z,14.50
2022-08-04T05:46:53.649Z,16.88
2022-08-04T05:49:29.653Z,20.85
2022-08-04T05:52:03.343Z,11.18
2022-08-04T05:54:34.628Z,18.92
2022-08-04T05:57:06.194Z,18.25
2022-08-04T05:59:37.799Z,19.58
2022-08-04T06:02:09.208Z,12.73
2022-08-04T06:04:41.762Z,13.73
2022-08-04T06:07:11.635Z,15.05
2022-08-04T06:09:42.743Z,12.93
2022-08-04T06:12:25.775Z,12.35
2022-08-04T06:14:59.422Z,16.10
2022-08-04T06:19:57.377Z,17.10
2022-08-04T06:20:50.184Z,16.52
2022-08-04T06:23:21.099Z,18.92
2022-08-04T06:25:55.569Z,14.27
2022-08-04T06:28:24.318Z,10.63
2022-08-04T06:30:53.695Z,11.32
2022-08-04T06:33:27.714Z,13.35
2022-08-04T06:36:00.774Z,14.13
2022-08-04T06:38:31.178Z,13.35
2022-08-04T06:40:59.958Z,12.20
2022-08-04T06:43:29.569Z,12.88
2022-08-04T06:46:03.349Z,10.73
2022-08-04T06:48:33.388Z,17.95
2022-08-04T06:51:28.278Z,15.23
2022-08-04T06:53:50.953Z,15.32
2022-08-04T06:56:20.613Z,13.63
2022-08-04T06:58:50.569Z,15.48
2022-08-04T07:01:22.148Z,12.65
2022-08-04T07:03:50.880Z,14.05
2022-08-04T07:06:29.967Z,14.07
2022-08-04T07:09:05.408Z,17.30
2022-08-04T07:11:44.323Z,18.77
2022-08-04T07:16:49.137Z,21.50
2022-08-04T07:19:19.335Z,16.10
2022-08-04T07:22:21.822Z,19.25
2022-08-04T07:24:38.430Z,18.70
2022-08-04T07:27:19.406Z,15.32
2022-08-04T07:30:08.436Z,18.13
2022-08-04T07:32:42.160Z,19.60
2022-08-04T07:35:14.774Z,18.48
2022-08-04T07:37:59.275Z,14.05
2022-08-04T07:40:27.798Z,12.63
2022-08-04T07:42:56.209Z,9.13
2022-08-04T07:45:26.603Z,13.18
2022-08-04T07:48:04.722Z,14.98
2022-08-04T07:50:35.551Z,9.05
2022-08-04T07:53:52.665Z,14.38
2022-08-04T07:55:53.877Z,14.50
2022-08-04T07:58:29.809Z,15.02
2022-08-04T08:03:31.450Z,10.90
2022-08-04T08:06:31.184Z,10.75
2022-08-04T08:08:48.693Z,16.27
2022-08-04T08:11:18.138Z,22.02
2022-08-04T08:13:47.747Z,9.55
2022-08-04T08:16:17.323Z,13.25
2022-08-04T08:18:49.876Z,11.73
2022-08-04T08:21:21.758Z,14.05
2022-08-04T08:23:51.482Z,13.48
2022-08-04T08:26:19.144Z,18.67
2022-08-04T08:28:47.986Z,21.73
2022-08-04T08:31:16.796Z,17.70
2022-08-04T08:33:46.829Z,18.40
2022-08-04T08:39:06.789Z,16.77
2022-08-04T08:41:53.196Z,13.55
2022-08-04T08:44:37.929Z,13.10
2022-08-04T08:47:21.381Z,12.45
2022-08-04T08:50:31.266Z,18.80
2022-08-04T08:53:21.759Z,18.60
2022-08-04T08:56:41.164Z,22.73
2022-08-04T08:59:20.759Z,16.40
2022-08-04T09:02:07.569Z,11.52
2022-08-04T09:04:50.474Z,12.75
2022-08-04T09:07:58.520Z,10.80
2022-08-04T09:10:51.907Z,15.32
2022-08-04T09:13:47.732Z,10.40
2022-08-04T09:16:26.589Z,21.00
2022-08-04T09:21:54.531Z,9.00
2022-08-04T09:25:02.972Z,13.82
2022-08-04T09:27:57.669Z,15.32
2022-08-04T09:30:43.763Z,8.65
2022-08-04T09:33:45.673Z,9.65
2022-08-04T09:36:41.827Z,8.25
2022-08-04T09:39:29.474Z,8.63
2022-08-04T09:42:34.159Z,8.55
2022-08-04T09:46:08.079Z,10.00
2022-08-04T09:48:52.469Z,6.45
2022-08-04T09:51:58.329Z,9.43
2022-08-04T09:54:30.673Z,8.73
2022-08-04T09:57:11.222Z,14.18
2022-08-04T10:00:04.173Z,4.70
2022-08-04T10:02:56.444Z,8.05
2022-08-04T10:05:27.738Z,4.65
2022-08-04T10:08:45.683Z,7.70
2022-08-04T10:11:33.783Z,6.88
2022-08-04T10:14:43.405Z,9.93
2022-08-04T10:17:18.871Z,7.88
2022-08-04T10:19:57.439Z,8.55
2022-08-04T10:22:29.826Z,6.07
2022-08-04T10:25:38.993Z,11.85
2022-08-04T10:28:11.183Z,10.02
2022-08-04T10:30:46.390Z,8.55
2022-08-04T10:33:25.053Z,9.88
2022-08-04T10:36:01.269Z,9.73
2022-08-04T10:38:40.926Z,15.75
2022-08-04T10:41:54.098Z,9.13
2022-08-04T10:44:57.641Z,13.13
2022-08-04T10:47:35.730Z,10.23
2022-08-04T10:50:05.722Z,6.22
2022-08-04T10:52:55.925Z,10.05
2022-08-04T10:56:07.417Z,18.40
2022-08-04T10:58:48.710Z,36.13
2022-08-04T11:02:01.322Z,13.77
2022-08-04T11:04:45.722Z,14.95
2022-08-04T11:07:23.911Z,13.27
2022-08-04T11:09:52.960Z,13.48
2022-08-04T11:12:28.782Z,16.17
2022-08-04T11:15:09.689Z,13.38
2022-08-04T11:17:42.127Z,10.77
2022-08-04T11:20:34.697Z,12.30
2022-08-04T11:23:12.183Z,11.52
2022-08-04T11:25:40.075Z,8.30
2022-08-04T11:28:26.013Z,10.63
2022-08-04T11:31:08.979Z,12.02
2022-08-04T11:34:04.640Z,14.88
2022-08-04T11:36:52.175Z,12.60
2022-08-04T11:39:30.353Z,11.63
2022-08-04T11:42:21.852Z,6.75
2022-08-04T11:45:08.593Z,13.05
2022-08-04T11:47:50.783Z,14.27
2022-08-04T11:50:27.660Z,11.88
2022-08-04T11:52:57.542Z,8.02
2022-08-04T11:55:31.139Z,10.55
2022-08-04T11:58:02.397Z,9.27
2022-08-04T12:00:32.629Z,7.57
2022-08-04T12:03:19.831Z,10.85
2022-08-04T12:06:10.320Z,9.38
2022-08-04T12:09:04.760Z,8.50
2022-08-04T12:11:51.149Z,12.38
2022-08-04T12:14:37.336Z,10.20
2022-08-04T12:17:11.173Z,15.02
2022-08-04T12:20:04.028Z,11.27
2022-08-04T12:23:00.133Z,11.65
2022-08-04T12:25:36.200Z,10.23
2022-08-04T12:28:15.226Z,18.60
2022-08-04T12:31:01.681Z,8.98
2022-08-04T12:34:09.255Z,16.75
2022-08-04T12:37:00.169Z,9.05
2022-08-04T12:39:30.608Z,12.27
2022-08-04T12:44:39.117Z,8.13
2022-08-04T12:47:26.934Z,8.23
2022-08-04T12:50:02.903Z,10.32
2022-08-04T12:55:34.471Z,7.85
2022-08-04T12:58:43.330Z,6.63
2022-08-04T13:02:10.154Z,10.48
2022-08-04T13:04:17.103Z,11.95
2022-08-04T13:06:53.843Z,12.10
2022-08-04T13:09:24.257Z,11.80
2022-08-04T13:11:56.123Z,6.40
2022-08-04T13:14:27.535Z,8.07
2022-08-04T13:17:04.485Z,10.95
2022-08-04T13:19:41.614Z,7.25
2022-08-04T13:22:10.144Z,7.78
2022-08-04T13:24:56.321Z,7.43
2022-08-04T13:27:43.132Z,8.52
2022-08-04T13:30:17.083Z,9.52
2022-08-04T13:33:05.097Z,11.38
2022-08-04T13:35:56.035Z,6.85
2022-08-04T13:38:25.357Z,7.93
2022-08-04T13:40:54.380Z,8.93
2022-08-04T13:43:48.472Z,8.60
2022-08-04T13:46:41.262Z,10.65
2022-08-04T13:49:54.212Z,7.13
2022-08-04T13:52:11.242Z,11.07
2022-08-04T13:54:48.196Z,9.40
2022-08-04T13:57:31.489Z,10.98
2022-08-04T14:00:09.609Z,9.68
2022-08-04T14:02:59.246Z,7.63
2022-08-04T14:05:32.568Z,9.45
2022-08-04T14:08:13.032Z,11.13
2022-08-04T14:10:46.439Z,8.15
2022-08-04T14:13:17.377Z,14.00
2022-08-04T14:16:02.076Z,7.80
2022-08-04T14:18:32.914Z,9.35
2022-08-04T14:21:18.367Z,7.15
2022-08-04T14:23:56.606Z,9.00
2022-08-04T14:26:33.971Z,7.35
2022-08-04T14:29:26.526Z,12.27
2022-08-04T14:32:12.995Z,5.80
2022-08-04T14:34:46.861Z,8.25
2022-08-04T14:37:19.827Z,6.07
2022-08-04T14:40:08.944Z,11.55
2022-08-04T14:42:43.348Z,9.70
2022-08-04T14:45:12.426Z,7.40
2022-08-04T14:47:52.402Z,10.57
2022-08-04T14:50:33.109Z,7.78
2022-08-04T14:53:06.950Z,7.63
2022-08-04T14:55:35.634Z,6.18
2022-08-04T14:58:34.750Z,10.25
2022-08-04T15:01:00.133Z,6.15
2022-08-04T15:03:32.360Z,7.03
2022-08-04T15:06:07.896Z,6.85
2022-08-04T15:08:39.358Z,9.38
2022-08-04T15:11:10.815Z,6.32
2022-08-04T15:13:53.696Z,5.85
2022-08-04T15:16:22.868Z,5.45
2022-08-04T15:18:54.868Z,8.90
2022-08-04T15:21:28.762Z,4.72
2022-08-04T15:23:57.910Z,9.90
2022-08-04T15:26:43.620Z,4.57
2022-08-04T15:30:00.925Z,2.97
2022-08-04T15:32:31.033Z,5.43
2022-08-04T15:35:09.623Z,6.03
2022-08-04T15:37:50.135Z,11.10
2022-08-04T15:40:33.290Z,4.60
2022-08-04T15:43:26.871Z,5.90
2022-08-04T15:46:02.114Z,6.03
2022-08-04T15:48:48.611Z,5.20
2022-08-04T15:51:32.177Z,7.55
2022-08-04T15:54:02.630Z,4.45
2022-08-04T15:56:31.906Z,4.13
2022-08-04T15:58:59.549Z,5.50
2022-08-04T16:01:36.638Z,5.35
2022-08-04T16:04:25.820Z,5.57
2022-08-04T16:07:07.509Z,3.60
2022-08-04T16:09:45.297Z,7.03
2022-08-04T16:13:00.809Z,6.55
2022-08-04T16:16:03.379Z,5.93
2022-08-04T16:18:31.773Z,5.03
2022-08-04T16:21:08.646Z,6.35
2022-08-04T16:23:59.183Z,4.10
2022-08-04T16:26:45.393Z,6.63
2022-08-04T16:29:40.411Z,5.82
2022-08-04T16:32:16.244Z,3.50
2022-08-04T16:34:54.601Z,3.13
2022-08-04T16:37:34.281Z,5.80
2022-08-04T16:40:38.777Z,4.65
2022-08-04T16:43:18.674Z,4.70
2022-08-04T16:45:59.613Z,4.30
2022-08-04T16:48:31.604Z,5.80
2022-08-04T16:51:09.150Z,8.80
2022-08-04T16:53:52.916Z,10.35
2022-08-04T16:56:34.668Z,6.97
2022-08-04T16:59:12.057Z,3.97
2022-08-04T17:01:52.196Z,6.35
2022-08-04T17:04:30.360Z,6.15
2022-08-04T17:07:07.701Z,4.38
2022-08-04T17:09:38.129Z,7.43
2022-08-04T17:14:38.930Z,4.22
2022-08-04T17:17:08.688Z,6.93
2022-08-04T17:19:38.340Z,11.23
2022-08-04T17:22:11.742Z,4.77
2022-08-04T17:24:41.284Z,3.95
2022-08-04T17:29:58.817Z,10.07
2022-08-04T17:32:27.180Z,5.18
2022-08-04T17:37:52.709Z,10.25
2022-08-04T17:40:25.476Z,5.18
2022-08-04T17:46:29.732Z,5.68
2022-08-04T17:49:17.873Z,5.85
2022-08-04T17:52:06.072Z,4.25
2022-08-04T17:54:40.603Z,7.28
2022-08-04T17:57:21.565Z,6.00
2022-08-04T18:02:54.960Z,7.63
2022-08-04T18:06:01.618Z,4.65
2022-08-04T18:08:39.192Z,4.68
2022-08-04T18:11:21.313Z,8.02
2022-08-04T18:13:57.933Z,5.53
2022-08-04T18:19:19.101Z,5.18
2022-08-04T18:22:00.374Z,8.02
2022-08-04T18:24:35.708Z,6.18
2022-08-04T18:27:21.949Z,5.78
2022-08-04T18:30:33.716Z,5.90
2022-08-04T18:33:04.207Z,5.65
2022-08-04T18:36:34.659Z,4.75
2022-08-04T18:38:26.546Z,4.20
2022-08-04T18:40:57.968Z,5.40
2022-08-04T18:43:27.841Z,9.70
2022-08-04T18:46:01.593Z,5.55
2022-08-04T18:48:36.710Z,4.95
2022-08-04T18:51:23.275Z,7.60
2022-08-04T18:53:54.878Z,6.03
2022-08-04T18:56:33.187Z,3.20
2022-08-04T18:59:02.866Z,5.88
2022-08-04T19:02:12.343Z,3.10
2022-08-04T19:04:33.212Z,6.20
2022-08-04T19:07:28.771Z,9.20
2022-08-04T19:12:45.135Z,6.10
2022-08-04T19:15:13.117Z,6.93
2022-08-04T19:17:55.099Z,4.45
2022-08-04T19:20:31.204Z,2.97
2022-08-04T19:24:30.338Z,5.57
2022-08-04T19:26:01.262Z,3.65
2022-08-04T19:28:34.440Z,7.78
2022-08-04T19:31:12.753Z,6.05
2022-08-04T19:33:58.951Z,4.63
2022-08-04T19:36:33.745Z,7.65
2022-08-04T19:39:11.245Z,6.03
2022-08-04T19:42:05.193Z,3.10
2022-08-04T19:44:30.845Z,6.05
2022-08-04T19:50:05.055Z,3.83
2022-08-04T19:52:38.670Z,5.40
2022-08-04T19:55:10.608Z,5.93
2022-08-04T19:57:46.381Z,4.45
2022-08-04T20:00:33.973Z,3.35
2022-08-04T20:03:11.298Z,4.68
2022-08-04T20:05:54.848Z,5.10
2022-08-04T20:08:27.991Z,4.45
2022-08-04T20:10:56.073Z,5.13
2022-08-04T20:13:36.984Z,4.63
2022-08-04T20:16:28.341Z,3.05
2022-08-04T20:19:02.900Z,8.52
2022-08-04T20:21:54.415Z,8.98
2022-08-04T20:24:38.205Z,6.90
2022-08-04T20:27:14.842Z,3.85
2022-08-04T20:29:55.596Z,4.38
2022-08-04T20:32:27.210Z,4.20
2022-08-04T20:34:56.906Z,4.43
2022-08-04T20:37:54.754Z,4.10
2022-08-04T20:40:17.028Z,7.57
2022-08-04T20:42:47.770Z,7.00
2022-08-04T20:45:18.610Z,4.47
2022-08-04T20:47:54.191Z,6.05
2022-08-04T20:50:29.638Z,4.03
2022-08-04T20:52:58.594Z,5.50
2022-08-04T20:58:19.766Z,7.28
2022-08-04T21:00:57.069Z,4.95
2022-08-04T21:03:49.490Z,4.13
2022-08-04T21:06:15.792Z,5.70
2022-08-04T21:08:56.728Z,4.45
2022-08-04T21:11:32.641Z,9.95
2022-08-04T21:14:03.198Z,6.88
2022-08-04T21:16:54.229Z,4.97
2022-08-04T21:19:24.586Z,4.82
2022-08-04T21:21:55.657Z,8.35
2022-08-04T21:24:26.066Z,6.18
2022-08-04T21:26:57.201Z,9.00
2022-08-04T21:32:05.949Z,9.30
2022-08-04T21:34:39.249Z,8.80
2022-08-04T21:37:11.203Z,10.40
2022-08-04T21:39:50.344Z,6.45
2022-08-04T21:42:42.815Z,7.28
2022-08-04T21:45:19.790Z,14.38
2022-08-04T21:47:49.689Z,6.95
2022-08-04T21:50:19.940Z,10.45
2022-08-04T21:56:06.698Z,7.78
2022-08-04T21:58:40.709Z,13.17
2022-08-04T22:04:14.052Z,10.52
2022-08-04T22:06:51.691Z,11.02
2022-08-04T22:09:21.865Z,7.05
2022-08-04T22:11:51.585Z,9.98
2022-08-04T22:14:28.949Z,10.93
2022-08-04T22:17:01.881Z,9.50
2022-08-04T22:19:50.756Z,10.15
2022-08-04T22:22:25.717Z,10.45
2022-08-04T22:24:58.816Z,10.80
2022-08-04T22:27:47.223Z,9.43
2022-08-04T22:30:18.221Z,11.93
2022-08-04T22:32:47.938Z,9.25
2022-08-04T22:35:36.396Z,9.68
2022-08-04T22:38:20.838Z,8.90
2022-08-04T22:41:08.457Z,9.27
2022-08-04T22:43:38.304Z,13.15
2022-08-04T22:46:11.984Z,8.38
2022-08-04T22:48:43.463Z,7.18
2022-08-04T22:51:13.920Z,8.65
2022-08-04T22:53:48.771Z,10.30
2022-08-04T22:56:38.266Z,6.53
2022-08-04T22:59:11.100Z,10.82
2022-08-04T23:02:00.879Z,9.23
2022-08-04T23:04:30.169Z,7.53
2022-08-04T23:06:58.471Z,8.10
2022-08-04T23:09:49.659Z,11.50
2022-08-04T23:12:26.501Z,11.07
2022-08-04T23:14:57.335Z,5.93
2022-08-04T23:17:27.933Z,11.02
2022-08-04T23:19:58.980Z,9.85
2022-08-04T23:22:41.210Z,7.75
2022-08-04T23:25:16.964Z,8.77
2022-08-04T23:27:51.011Z,10.82
2022-08-04T23:30:24.746Z,5.65
2022-08-04T23:32:58.441Z,10.40
2022-08-04T23:35:26.455Z,8.27
2022-08-04T23:37:56.921Z,6.60
2022-08-04T23:40:49.875Z,8.48
2022-08-04T23:43:19.491Z,8.82
2022-08-04T23:46:04.699Z,8.27
2022-08-04T23:48:38.837Z,6.95
2022-08-04T23:51:14.173Z,7.38
2022-08-04T23:54:01.757Z,7.38
2022-08-04T23:56:38.108Z,8.38
2022-08-04T23:59:05.712Z,8.05
